Schoten, Belgium
Current Conditions -  °F | °C
As of 9:50 AM on Saturday 29 Nov 2014 (Local Time) from EBAW Reporting Station
Clear Clear  
Wind Chill: 34°   Ceiling: Unl
Heat Index: 39°   Visibility: 4mi
Dew Point: 36°   Wind: 8mph
Humidity: 87%   Direction: 80°E
Pressure: 29.91"   Gusts: NA
Location:  51.25°N, 4.5°E
Report Text: EBAW 290850Z 08007KT 7000 NSC 04/02 Q1013 NOSIG
Loading
Personal Weather Stations






























Interactive Weather Map New forecast layout! Learn more

10-Day Weather Forecast

Advertisements
Track Severe Weather on mobile